createdAt,value
2022-10-14T00:00:51.060Z,28.47
2022-10-14T00:03:40.656Z,25.17
2022-10-14T00:06:28.903Z,27.07
2022-10-14T00:09:15.369Z,26.63
2022-10-14T00:12:02.091Z,26.93
2022-10-14T00:14:49.364Z,30.10
2022-10-14T00:17:37.505Z,27.53
2022-10-14T00:20:25.234Z,29.80
2022-10-14T00:23:13.513Z,27.83
2022-10-14T00:26:00.340Z,28.77
2022-10-14T00:28:50.823Z,26.57
2022-10-14T00:31:37.430Z,31.37
2022-10-14T00:34:24.342Z,27.30
2022-10-14T00:37:15.246Z,34.47
2022-10-14T00:40:02.002Z,33.33
2022-10-14T00:42:50.348Z,34.63
2022-10-14T00:45:37.070Z,30.73
2022-10-14T00:48:26.352Z,30.40
2022-10-14T00:51:15.700Z,31.17
2022-10-14T00:54:03.736Z,31.37
2022-10-14T00:56:51.460Z,29.63
2022-10-14T00:59:42.859Z,27.97
2022-10-14T01:02:30.719Z,29.67
2022-10-14T01:05:20.198Z,28.73
2022-10-14T01:08:10.844Z,30.70
2022-10-14T01:11:06.838Z,33.57
2022-10-14T01:14:02.688Z,32.87
2022-10-14T01:16:58.323Z,30.37
2022-10-14T01:20:05.558Z,31.93
2022-10-14T01:23:07.695Z,31.70
2022-10-14T01:26:03.346Z,30.97
2022-10-14T01:29:03.217Z,34.80
2022-10-14T01:32:01.460Z,31.83
2022-10-14T01:34:54.874Z,33.33
2022-10-14T01:37:50.093Z,34.70
2022-10-14T01:40:43.488Z,35.43
2022-10-14T01:43:33.185Z,30.37
2022-10-14T01:46:23.279Z,32.00
2022-10-14T01:49:16.814Z,33.93
2022-10-14T01:52:08.536Z,28.90
2022-10-14T01:55:00.097Z,30.27
2022-10-14T01:57:49.824Z,31.50
2022-10-14T02:00:36.354Z,33.20
2022-10-14T02:03:23.246Z,26.50
2022-10-14T02:06:15.865Z,32.17
2022-10-14T02:09:12.817Z,35.90
2022-10-14T02:12:20.526Z,30.40
2022-10-14T02:15:15.644Z,37.50
2022-10-14T02:18:07.705Z,25.23
2022-10-14T02:20:59.152Z,30.27
2022-10-14T02:23:53.270Z,32.07
2022-10-14T02:26:44.368Z,28.93
2022-10-14T02:29:33.088Z,28.07
2022-10-14T02:32:23.113Z,24.90
2022-10-14T02:35:13.810Z,29.20
2022-10-14T02:38:01.021Z,35.60
2022-10-14T02:40:51.840Z,26.90
2022-10-14T02:43:39.181Z,31.43
2022-10-14T02:46:26.079Z,28.33
2022-10-14T02:49:12.840Z,32.00
2022-10-14T02:51:59.421Z,29.17
2022-10-14T02:54:46.239Z,26.60
2022-10-14T02:57:34.311Z,117.57
2022-10-14T03:00:22.065Z,27.40
2022-10-14T03:03:08.966Z,24.33
2022-10-14T03:05:55.833Z,21.83
2022-10-14T03:08:43.125Z,21.83
2022-10-14T03:11:29.883Z,30.67
2022-10-14T03:14:24.662Z,24.70
2022-10-14T03:17:11.952Z,23.63
2022-10-14T03:19:59.752Z,24.50
2022-10-14T03:22:46.467Z,25.30
2022-10-14T03:25:33.223Z,29.50
2022-10-14T03:28:25.463Z,22.53
2022-10-14T03:31:22.129Z,27.00
2022-10-14T03:34:41.085Z,24.77
2022-10-14T03:37:34.807Z,25.50
2022-10-14T03:40:23.181Z,21.73
2022-10-14T03:43:10.963Z,25.10
2022-10-14T03:46:07.338Z,22.77
2022-10-14T03:48:55.552Z,24.47
2022-10-14T03:51:42.589Z,23.07
2022-10-14T03:54:38.122Z,29.07
2022-10-14T03:57:26.012Z,27.67
2022-10-14T04:00:16.617Z,32.37
2022-10-14T04:03:08.656Z,22.97
2022-10-14T04:06:00.809Z,24.03
2022-10-14T04:08:49.392Z,25.33
2022-10-14T04:11:45.817Z,45.53
2022-10-14T04:14:51.764Z,43.77
2022-10-14T04:17:38.519Z,29.67
2022-10-14T04:20:31.000Z,32.13
2022-10-14T04:23:19.023Z,29.43
2022-10-14T04:26:10.441Z,35.17
2022-10-14T04:28:58.395Z,27.40
2022-10-14T04:31:53.797Z,28.20
2022-10-14T04:34:40.588Z,31.57
2022-10-14T04:37:29.264Z,29.77
2022-10-14T04:40:25.910Z,23.93
2022-10-14T04:43:13.991Z,23.43
2022-10-14T04:46:01.588Z,26.27
2022-10-14T04:48:50.349Z,33.33
2022-10-14T04:51:37.902Z,26.63
2022-10-14T04:54:42.995Z,86.97
2022-10-14T04:57:31.645Z,98.37
2022-10-14T05:00:18.694Z,86.20
2022-10-14T05:03:11.647Z,60.23
2022-10-14T05:05:58.633Z,47.33
2022-10-14T05:08:46.144Z,50.00
2022-10-14T05:11:33.842Z,18.37
2022-10-14T05:14:22.961Z,16.23
2022-10-14T05:17:20.287Z,15.77
2022-10-14T05:20:08.185Z,19.73
2022-10-14T05:22:57.243Z,20.97
2022-10-14T05:25:44.416Z,16.80
2022-10-14T05:28:32.213Z,18.93
2022-10-14T05:31:20.769Z,20.23
2022-10-14T05:34:18.839Z,43.83
2022-10-14T05:37:05.581Z,64.53
2022-10-14T05:40:01.021Z,55.87
2022-10-14T05:42:49.269Z,49.30
2022-10-14T05:45:39.464Z,41.23
2022-10-14T05:48:28.033Z,41.57
2022-10-14T05:51:15.715Z,30.00
2022-10-14T05:54:02.797Z,21.50
2022-10-14T05:56:49.959Z,23.47
2022-10-14T05:59:36.827Z,22.83
2022-10-14T06:02:24.171Z,29.83
2022-10-14T06:05:15.111Z,34.53
2022-10-14T06:08:01.931Z,37.50
2022-10-14T06:10:48.731Z,53.37
2022-10-14T06:13:35.808Z,60.03
2022-10-14T06:16:22.499Z,63.77
2022-10-14T06:19:09.395Z,55.83
2022-10-14T06:21:58.450Z,34.17
2022-10-14T06:24:45.162Z,33.37
2022-10-14T06:27:32.061Z,32.33
2022-10-14T06:30:19.130Z,27.83
2022-10-14T06:33:05.879Z,27.03
2022-10-14T06:35:52.387Z,30.87
2022-10-14T06:38:40.539Z,25.90
2022-10-14T06:41:27.301Z,31.53
2022-10-14T06:44:15.662Z,31.57
2022-10-14T06:47:02.528Z,31.10
2022-10-14T06:49:49.386Z,29.07
2022-10-14T06:52:36.202Z,38.00
2022-10-14T06:55:24.297Z,43.07
2022-10-14T06:58:11.413Z,35.23
2022-10-14T07:01:02.852Z,38.60
2022-10-14T07:03:52.896Z,45.17
2022-10-14T07:06:42.614Z,43.37
2022-10-14T07:09:29.448Z,37.83
2022-10-14T07:12:17.790Z,45.40
2022-10-14T07:15:05.256Z,42.63
2022-10-14T07:17:51.999Z,49.00
2022-10-14T07:20:38.698Z,37.80
2022-10-14T07:23:25.703Z,38.30
2022-10-14T07:26:12.604Z,34.90
2022-10-14T07:29:00.567Z,33.63
2022-10-14T07:31:47.049Z,30.70
2022-10-14T07:34:34.399Z,29.50
2022-10-14T07:37:21.300Z,33.83
2022-10-14T07:40:09.981Z,36.00
2022-10-14T07:42:57.452Z,32.20
2022-10-14T07:45:47.931Z,35.03
2022-10-14T07:48:45.293Z,28.50
2022-10-14T07:51:39.974Z,26.57
2022-10-14T07:54:29.551Z,35.93
2022-10-14T07:57:16.779Z,29.17
2022-10-14T08:00:04.225Z,27.47
2022-10-14T08:02:59.897Z,26.87
2022-10-14T08:05:47.608Z,29.53
2022-10-14T08:08:34.480Z,31.10
2022-10-14T08:11:23.309Z,30.53
2022-10-14T08:14:09.908Z,31.13
2022-10-14T08:16:56.404Z,28.73
2022-10-14T08:19:44.657Z,27.40
2022-10-14T08:22:31.547Z,27.43
2022-10-14T08:25:18.347Z,31.13
2022-10-14T08:28:05.459Z,33.63
2022-10-14T08:30:53.002Z,32.50
2022-10-14T08:33:39.569Z,30.60
2022-10-14T08:36:28.065Z,30.90
2022-10-14T08:39:18.506Z,33.77
2022-10-14T08:42:29.554Z,35.10
2022-10-14T08:45:20.562Z,27.40
2022-10-14T08:48:15.615Z,30.23
2022-10-14T08:51:06.241Z,31.90
2022-10-14T08:54:00.019Z,35.07
2022-10-14T08:56:46.942Z,30.27
2022-10-14T08:59:40.296Z,25.27
2022-10-14T09:02:39.140Z,36.87
2022-10-14T09:05:27.420Z,26.37
2022-10-14T09:08:18.394Z,26.43
2022-10-14T09:11:07.568Z,31.23
2022-10-14T09:13:58.997Z,32.00
2022-10-14T09:16:50.483Z,26.87
2022-10-14T09:19:47.054Z,32.23
2022-10-14T09:22:33.859Z,30.63
2022-10-14T09:25:20.709Z,31.93
2022-10-14T09:28:10.138Z,28.33
2022-10-14T09:30:56.712Z,33.97
2022-10-14T09:33:45.664Z,32.87
2022-10-14T09:36:32.239Z,35.50
2022-10-14T09:39:19.282Z,26.77
2022-10-14T09:42:10.357Z,36.13
2022-10-14T09:45:14.433Z,24.47
2022-10-14T09:48:07.874Z,26.33
2022-10-14T09:50:56.879Z,28.17
2022-10-14T09:53:49.083Z,33.87
2022-10-14T09:56:41.660Z,29.90
2022-10-14T09:59:42.498Z,29.67
2022-10-14T10:02:50.199Z,30.03
2022-10-14T10:05:47.493Z,25.03
2022-10-14T10:08:52.975Z,24.73
2022-10-14T10:12:04.640Z,25.60
2022-10-14T10:15:07.301Z,28.17
2022-10-14T10:18:09.852Z,22.70
2022-10-14T10:21:40.968Z,28.40
2022-10-14T10:24:52.310Z,25.00
2022-10-14T10:27:41.672Z,29.17
2022-10-14T10:30:30.471Z,27.03
2022-10-14T10:33:29.044Z,22.77
2022-10-14T10:36:22.205Z,22.27
2022-10-14T10:39:24.710Z,21.00
2022-10-14T10:42:22.339Z,19.47
2022-10-14T10:45:17.193Z,22.47
2022-10-14T10:48:10.734Z,23.50
2022-10-14T10:51:08.377Z,23.37
2022-10-14T10:54:09.455Z,17.77
2022-10-14T10:57:02.323Z,23.80
2022-10-14T10:59:59.245Z,21.73
2022-10-14T11:02:56.798Z,23.23
2022-10-14T11:05:52.460Z,23.23
2022-10-14T11:09:17.327Z,21.63
2022-10-14T11:12:15.946Z,18.07
2022-10-14T11:15:24.211Z,22.33
2022-10-14T11:18:20.698Z,19.03
2022-10-14T11:21:15.043Z,23.30
2022-10-14T11:24:10.580Z,18.10
2022-10-14T11:27:13.628Z,18.03
2022-10-14T11:30:15.688Z,22.43
2022-10-14T11:33:25.905Z,21.90
2022-10-14T11:36:23.765Z,18.23
2022-10-14T11:39:26.002Z,23.37
2022-10-14T11:42:26.026Z,19.30
2022-10-14T11:45:41.554Z,20.57
2022-10-14T11:48:33.691Z,17.63
2022-10-14T11:51:25.158Z,17.40
2022-10-14T11:54:18.238Z,19.30
2022-10-14T11:57:09.638Z,16.47
2022-10-14T12:00:02.302Z,21.57
2022-10-14T12:03:08.763Z,16.53
2022-10-14T12:06:04.416Z,15.87
2022-10-14T12:08:56.792Z,14.37
2022-10-14T12:11:51.148Z,22.30
2022-10-14T12:14:40.951Z,17.60
2022-10-14T12:17:33.287Z,20.67
2022-10-14T12:20:33.205Z,19.57
2022-10-14T12:23:30.658Z,17.63
2022-10-14T12:26:35.909Z,16.17
2022-10-14T12:29:27.047Z,22.97
2022-10-14T12:32:24.245Z,21.27
2022-10-14T12:35:53.801Z,18.33
2022-10-14T12:38:40.286Z,20.53
2022-10-14T12:41:35.212Z,17.77
2022-10-14T12:44:24.825Z,18.33
2022-10-14T12:47:21.040Z,18.03
2022-10-14T12:50:29.343Z,18.10
2022-10-14T12:53:23.437Z,17.60
2022-10-14T12:56:11.479Z,19.63
2022-10-14T12:59:01.988Z,17.73
2022-10-14T13:01:59.129Z,19.20
2022-10-14T13:04:49.316Z,18.30
2022-10-14T13:07:44.095Z,16.77
2022-10-14T13:11:09.801Z,18.87
2022-10-14T13:14:01.847Z,20.87
2022-10-14T13:17:22.622Z,23.70
2022-10-14T13:20:53.760Z,18.97
2022-10-14T13:23:44.678Z,20.97
2022-10-14T13:26:42.455Z,24.70
2022-10-14T13:29:41.368Z,17.27
2022-10-14T13:32:36.197Z,20.60
2022-10-14T13:35:31.200Z,16.07
2022-10-14T13:38:20.464Z,17.73
2022-10-14T13:41:18.665Z,19.57
2022-10-14T13:44:06.951Z,21.37
2022-10-14T13:46:55.497Z,18.30
2022-10-14T13:49:44.223Z,16.23
2022-10-14T13:52:34.597Z,15.77
2022-10-14T13:55:24.817Z,19.83
2022-10-14T13:58:15.143Z,22.77
2022-10-14T14:01:06.860Z,16.33
2022-10-14T14:03:56.819Z,18.93
2022-10-14T14:07:03.082Z,21.00
2022-10-14T14:09:59.381Z,14.80
2022-10-14T14:12:46.163Z,13.60
2022-10-14T14:15:32.652Z,16.97
2022-10-14T14:18:49.314Z,14.63
2022-10-14T14:21:43.326Z,13.43
2022-10-14T14:24:34.318Z,14.43
2022-10-14T14:27:23.614Z,12.80
2022-10-14T14:30:22.285Z,15.17
2022-10-14T14:33:13.321Z,13.03
2022-10-14T14:36:04.289Z,13.03
2022-10-14T14:38:55.905Z,13.53
2022-10-14T14:41:51.282Z,15.10
2022-10-14T14:44:38.013Z,16.63
2022-10-14T14:47:27.250Z,10.30
2022-10-14T14:50:32.089Z,16.07
2022-10-14T14:53:22.344Z,11.00
2022-10-14T14:56:14.735Z,12.60
2022-10-14T14:59:08.740Z,9.10
2022-10-14T15:01:56.926Z,13.00
2022-10-14T15:04:45.857Z,11.27
2022-10-14T15:07:33.545Z,10.03
2022-10-14T15:10:24.228Z,8.97
2022-10-14T15:13:28.196Z,9.30
2022-10-14T15:16:14.778Z,7.90
2022-10-14T15:19:34.103Z,8.83
2022-10-14T15:22:33.899Z,12.40
2022-10-14T15:25:29.069Z,10.40
2022-10-14T15:28:30.574Z,8.13
2022-10-14T15:31:19.348Z,7.53
2022-10-14T15:34:06.902Z,10.00
2022-10-14T15:36:54.269Z,8.37
2022-10-14T15:39:40.670Z,8.47
2022-10-14T15:42:28.857Z,10.73
2022-10-14T15:45:16.433Z,11.47
2022-10-14T15:48:06.102Z,8.33
2022-10-14T15:50:52.934Z,10.63
2022-10-14T15:53:39.604Z,9.03
2022-10-14T15:56:26.641Z,10.07
2022-10-14T15:59:16.264Z,12.67
2022-10-14T16:02:05.269Z,8.53
2022-10-14T16:05:20.978Z,11.83
2022-10-14T16:07:59.114Z,17.70
2022-10-14T16:10:47.353Z,8.50
2022-10-14T16:13:34.911Z,10.13
2022-10-14T16:16:28.752Z,11.77
2022-10-14T16:19:15.323Z,12.90
2022-10-14T16:22:04.518Z,16.00
2022-10-14T16:24:52.115Z,10.13
2022-10-14T16:27:38.959Z,11.73
2022-10-14T16:30:28.195Z,9.40
2022-10-14T16:33:17.235Z,20.00
2022-10-14T16:36:07.074Z,10.10
2022-10-14T16:38:53.901Z,9.90
2022-10-14T16:41:40.645Z,10.80
2022-10-14T16:44:27.696Z,9.53
2022-10-14T16:47:20.796Z,13.50
2022-10-14T16:50:10.773Z,11.30
2022-10-14T16:53:14.954Z,14.03
2022-10-14T16:56:01.972Z,12.17
2022-10-14T16:58:48.371Z,11.00
2022-10-14T17:01:35.288Z,10.60
2022-10-14T17:04:22.404Z,11.10
2022-10-14T17:07:17.536Z,14.17
2022-10-14T17:10:04.991Z,11.57
2022-10-14T17:12:51.441Z,12.87
2022-10-14T17:15:38.175Z,14.50
2022-10-14T17:18:25.857Z,11.90
2022-10-14T17:21:13.762Z,14.80
2022-10-14T17:24:02.983Z,16.43
2022-10-14T17:26:49.878Z,14.27
2022-10-14T17:29:36.487Z,14.67
2022-10-14T17:32:23.544Z,12.90
2022-10-14T17:35:14.421Z,13.23
2022-10-14T17:38:02.107Z,12.30
2022-10-14T17:40:50.329Z,9.20
2022-10-14T17:43:37.847Z,12.90
2022-10-14T17:46:27.240Z,13.30
2022-10-14T17:49:15.232Z,14.63
2022-10-14T17:52:02.404Z,12.37
2022-10-14T17:54:48.844Z,11.87
2022-10-14T17:57:37.398Z,10.97
2022-10-14T18:00:24.251Z,14.43
2022-10-14T18:03:10.891Z,9.50
2022-10-14T18:05:57.516Z,9.93
2022-10-14T18:08:45.936Z,13.40
2022-10-14T18:11:56.169Z,15.17
2022-10-14T18:14:43.411Z,15.70
2022-10-14T18:17:30.126Z,12.73
2022-10-14T18:20:17.014Z,12.43
2022-10-14T18:23:03.944Z,10.67
2022-10-14T18:25:50.639Z,10.40
2022-10-14T18:28:40.462Z,10.17
2022-10-14T18:31:30.608Z,14.20
2022-10-14T18:34:17.670Z,12.37
2022-10-14T18:37:04.341Z,15.17
2022-10-14T18:39:51.133Z,12.30
2022-10-14T18:42:37.889Z,11.67
2022-10-14T18:45:24.816Z,11.80
2022-10-14T18:48:13.549Z,9.77
2022-10-14T18:51:00.757Z,10.73
2022-10-14T18:53:49.623Z,12.30
2022-10-14T18:56:38.780Z,11.07
2022-10-14T18:59:25.969Z,13.03
2022-10-14T19:02:14.107Z,12.37
2022-10-14T19:05:02.339Z,13.23
2022-10-14T19:07:50.014Z,13.27
2022-10-14T19:10:36.845Z,11.30
2022-10-14T19:13:23.320Z,10.63
2022-10-14T19:16:15.687Z,13.70
2022-10-14T19:19:07.960Z,12.70
2022-10-14T19:21:59.627Z,10.70
2022-10-14T19:24:46.137Z,9.20
2022-10-14T19:27:32.853Z,11.10
2022-10-14T19:30:19.642Z,11.73
2022-10-14T19:33:06.529Z,10.40
2022-10-14T19:36:01.057Z,10.80
2022-10-14T19:38:52.187Z,12.47
2022-10-14T19:41:43.211Z,13.20
2022-10-14T19:44:29.995Z,13.63
2022-10-14T19:47:16.827Z,15.63
2022-10-14T19:50:03.590Z,11.77
2022-10-14T19:52:51.180Z,9.60
2022-10-14T19:55:39.497Z,16.23
2022-10-14T19:58:29.310Z,15.67
2022-10-14T20:01:28.843Z,15.53
2022-10-14T20:04:15.568Z,14.13
2022-10-14T20:07:02.225Z,12.93
2022-10-14T20:09:49.060Z,12.70
2022-10-14T20:12:37.316Z,17.00
2022-10-14T20:15:23.903Z,15.50
2022-10-14T20:18:10.779Z,12.00
2022-10-14T20:20:58.202Z,13.80
2022-10-14T20:23:45.922Z,15.40
2022-10-14T20:26:32.989Z,12.57
2022-10-14T20:29:21.125Z,13.50
2022-10-14T20:32:08.162Z,13.90
2022-10-14T20:34:54.644Z,12.23
2022-10-14T20:37:41.613Z,16.23
2022-10-14T20:40:28.521Z,14.40
2022-10-14T20:43:14.988Z,15.50
2022-10-14T20:46:03.305Z,18.10
2022-10-14T20:48:54.732Z,14.87
2022-10-14T20:51:42.288Z,12.93
2022-10-14T20:54:30.882Z,14.17
2022-10-14T20:57:19.534Z,15.07
2022-10-14T21:00:08.146Z,12.30
2022-10-14T21:02:56.625Z,14.93
2022-10-14T21:05:43.127Z,18.80
2022-10-14T21:08:46.599Z,14.60
2022-10-14T21:11:35.253Z,18.00
2022-10-14T21:14:22.556Z,18.03
2022-10-14T21:17:09.604Z,17.50
2022-10-14T21:19:58.491Z,20.60
2022-10-14T21:22:45.296Z,20.80
2022-10-14T21:25:32.169Z,20.20
2022-10-14T21:28:20.935Z,18.83
2022-10-14T21:31:10.080Z,20.50
2022-10-14T21:34:02.574Z,22.07
2022-10-14T21:36:53.100Z,22.70
2022-10-14T21:39:41.464Z,27.63
2022-10-14T21:42:28.570Z,19.87
2022-10-14T21:45:15.361Z,24.33
2022-10-14T21:48:02.314Z,22.30
2022-10-14T21:50:49.870Z,26.37
2022-10-14T21:53:38.448Z,23.20
2022-10-14T21:56:25.738Z,21.97
2022-10-14T21:59:13.197Z,22.40
2022-10-14T22:01:59.971Z,24.50
2022-10-14T22:04:47.673Z,20.60
2022-10-14T22:07:34.809Z,21.90
2022-10-14T22:10:39.831Z,20.50
2022-10-14T22:13:27.508Z,25.80
2022-10-14T22:16:16.893Z,23.83
2022-10-14T22:19:05.071Z,27.83
2022-10-14T22:21:51.606Z,19.90
2022-10-14T22:24:41.222Z,21.93
2022-10-14T22:27:29.801Z,21.90
2022-10-14T22:30:17.091Z,25.03
2022-10-14T22:33:04.132Z,24.73
2022-10-14T22:35:51.163Z,26.97
2022-10-14T22:38:38.056Z,21.40
2022-10-14T22:41:25.742Z,20.03
2022-10-14T22:44:13.747Z,25.13
2022-10-14T22:47:00.378Z,22.43
2022-10-14T22:49:47.365Z,23.23
2022-10-14T22:52:34.552Z,21.00
2022-10-14T22:55:27.286Z,23.77
2022-10-14T22:58:24.480Z,23.13
2022-10-14T23:01:18.761Z,23.40
2022-10-14T23:04:10.353Z,31.37
2022-10-14T23:07:04.419Z,26.87
2022-10-14T23:09:58.398Z,23.00
2022-10-14T23:12:52.029Z,24.97
2022-10-14T23:15:40.077Z,24.30
2022-10-14T23:18:29.493Z,25.47
2022-10-14T23:21:18.305Z,27.93
2022-10-14T23:24:08.369Z,22.97
2022-10-14T23:26:55.227Z,28.37
2022-10-14T23:29:44.461Z,18.40
2022-10-14T23:32:31.972Z,23.40
2022-10-14T23:35:20.263Z,31.77
2022-10-14T23:38:10.211Z,26.23
2022-10-14T23:41:04.164Z,26.63
2022-10-14T23:43:55.957Z,21.73
2022-10-14T23:46:50.087Z,26.00
2022-10-14T23:49:46.956Z,24.77
2022-10-14T23:52:37.191Z,25.53
2022-10-14T23:55:26.784Z,26.80
2022-10-14T23:58:19.482Z,28.53
